createdAt,value
2019-03-26T00:00:02.390Z,917.13
2019-03-26T00:02:32.766Z,910.40
2019-03-26T00:05:03.681Z,903.97
2019-03-26T00:07:34.596Z,891.17
2019-03-26T00:10:05.419Z,845.90
2019-03-26T00:12:36.240Z,838.93
2019-03-26T00:15:07.784Z,811.37
2019-03-26T00:17:38.178Z,781.63
2019-03-26T00:20:09.135Z,757.73
2019-03-26T00:22:40.186Z,728.47
2019-03-26T00:25:10.926Z,708.10
2019-03-26T00:27:41.359Z,672.60
2019-03-26T00:30:11.931Z,653.10
2019-03-26T00:32:43.539Z,630.77
2019-03-26T00:35:13.949Z,608.87
2019-03-26T00:37:44.371Z,582.33
2019-03-26T00:40:15.028Z,584.13
2019-03-26T00:42:45.422Z,571.60
2019-03-26T00:45:16.423Z,557.43
2019-03-26T00:47:46.914Z,540.80
2019-03-26T00:50:17.407Z,504.60
2019-03-26T00:52:48.136Z,490.00
2019-03-26T00:55:22.741Z,481.63
2019-03-26T00:57:50.922Z,473.87
2019-03-26T01:00:50.294Z,468.17
2019-03-26T01:03:20.705Z,432.40
2019-03-26T01:05:51.071Z,398.77
2019-03-26T01:08:21.499Z,360.77
2019-03-26T01:10:51.868Z,321.07
2019-03-26T01:13:22.683Z,278.43
2019-03-26T01:15:53.635Z,270.87
2019-03-26T01:18:25.607Z,237.97
2019-03-26T01:20:56.391Z,223.17
2019-03-26T01:23:27.237Z,208.13
2019-03-26T01:25:58.372Z,199.37
2019-03-26T01:28:29.183Z,198.83
2019-03-26T01:31:00.134Z,190.67
2019-03-26T01:33:30.521Z,189.03
2019-03-26T01:36:01.243Z,181.17
2019-03-26T01:38:31.610Z,176.67
2019-03-26T01:41:02.306Z,177.53
2019-03-26T01:43:32.818Z,174.70
2019-03-26T01:46:03.172Z,167.43
2019-03-26T01:48:33.571Z,164.83
2019-03-26T01:51:03.923Z,161.53
2019-03-26T01:53:34.330Z,159.73
2019-03-26T01:56:04.851Z,158.70
2019-03-26T01:58:35.314Z,158.87
2019-03-26T02:01:05.878Z,161.10
2019-03-26T02:03:37.117Z,165.23
2019-03-26T02:06:07.490Z,157.63
2019-03-26T02:08:37.843Z,156.57
2019-03-26T02:11:08.211Z,149.77
2019-03-26T02:13:39.066Z,148.47
2019-03-26T02:16:09.481Z,147.90
2019-03-26T02:18:40.411Z,145.70
2019-03-26T02:21:11.383Z,143.77
2019-03-26T02:23:42.176Z,143.13
2019-03-26T02:26:12.656Z,145.07
2019-03-26T02:28:44.514Z,145.40
2019-03-26T02:31:15.308Z,142.20
2019-03-26T02:33:45.723Z,141.10
2019-03-26T02:36:16.248Z,141.47
2019-03-26T02:38:46.662Z,141.07
2019-03-26T02:41:17.074Z,139.57
2019-03-26T02:43:47.550Z,140.87
2019-03-26T02:46:18.930Z,141.07
2019-03-26T02:48:49.391Z,145.70
2019-03-26T02:51:19.959Z,139.47
2019-03-26T02:53:50.360Z,137.57
2019-03-26T02:56:20.804Z,141.83
2019-03-26T02:58:51.285Z,138.10
2019-03-26T03:01:22.188Z,138.13
2019-03-26T03:03:52.580Z,138.50
2019-03-26T03:06:23.257Z,138.47
2019-03-26T03:08:53.985Z,138.73
2019-03-26T03:11:24.548Z,138.87
2019-03-26T03:13:55.127Z,138.93
2019-03-26T03:16:25.662Z,137.30
2019-03-26T03:18:57.717Z,137.67
2019-03-26T03:21:28.837Z,138.80
2019-03-26T03:23:59.646Z,136.87
2019-03-26T03:26:30.115Z,136.73
2019-03-26T03:29:00.483Z,139.43
2019-03-26T03:31:31.667Z,139.67
2019-03-26T03:34:03.830Z,138.17
2019-03-26T03:36:34.280Z,136.50
2019-03-26T03:39:05.548Z,139.37
2019-03-26T03:41:36.282Z,137.50
2019-03-26T03:44:07.010Z,143.60
2019-03-26T03:46:37.981Z,139.97
2019-03-26T03:49:08.854Z,137.40
2019-03-26T03:51:42.281Z,137.43
2019-03-26T03:54:13.159Z,141.13
2019-03-26T03:56:44.339Z,137.00
2019-03-26T03:59:15.000Z,136.97
2019-03-26T04:01:45.472Z,145.27
2019-03-26T04:04:16.405Z,140.33
2019-03-26T04:06:46.798Z,139.40
2019-03-26T04:09:17.885Z,141.57
2019-03-26T04:11:48.352Z,139.57
2019-03-26T04:14:18.875Z,137.87
2019-03-26T04:16:50.063Z,138.07
2019-03-26T04:19:20.512Z,138.17
2019-03-26T04:21:50.845Z,138.23
2019-03-26T04:24:21.775Z,138.17
2019-03-26T04:26:52.608Z,143.17
2019-03-26T04:29:23.119Z,138.50
2019-03-26T04:31:53.952Z,139.77
2019-03-26T04:34:24.772Z,139.63
2019-03-26T04:36:55.284Z,138.87
2019-03-26T04:39:25.791Z,141.57
2019-03-26T04:41:56.147Z,141.17
2019-03-26T04:44:26.680Z,140.90
2019-03-26T04:46:57.783Z,141.70
2019-03-26T04:49:28.462Z,140.83
2019-03-26T04:51:58.883Z,142.07
2019-03-26T04:54:29.308Z,142.87
2019-03-26T04:56:59.663Z,148.00
2019-03-26T04:59:30.057Z,145.60
2019-03-26T05:02:00.458Z,149.13
2019-03-26T05:04:31.288Z,148.97
2019-03-26T05:07:04.650Z,148.00
2019-03-26T05:09:35.514Z,151.47
2019-03-26T05:12:06.052Z,156.77
2019-03-26T05:14:37.399Z,160.63
2019-03-26T05:17:08.219Z,159.20
2019-03-26T05:19:38.727Z,162.63
2019-03-26T05:22:09.198Z,166.87
2019-03-26T05:24:40.069Z,164.73
2019-03-26T05:27:10.916Z,167.37
2019-03-26T05:29:41.263Z,168.67
2019-03-26T05:32:11.677Z,171.93
2019-03-26T05:34:42.607Z,177.97
2019-03-26T05:37:13.878Z,174.57
2019-03-26T05:39:44.688Z,176.23
2019-03-26T05:42:15.689Z,179.70
2019-03-26T05:44:46.124Z,185.77
2019-03-26T05:47:17.360Z,186.57
2019-03-26T05:49:48.515Z,185.67
2019-03-26T05:52:19.395Z,190.63
2019-03-26T05:54:50.188Z,189.60
2019-03-26T05:57:21.894Z,191.03
2019-03-26T05:59:52.308Z,199.67
2019-03-26T06:02:22.710Z,198.50
2019-03-26T06:04:53.195Z,202.13
2019-03-26T06:07:24.217Z,206.13
2019-03-26T06:09:54.558Z,217.33
2019-03-26T06:12:24.958Z,223.13
2019-03-26T06:14:55.944Z,222.30
2019-03-26T06:17:26.447Z,223.37
2019-03-26T06:19:57.327Z,226.40
2019-03-26T06:22:28.306Z,235.67
2019-03-26T06:24:58.734Z,245.20
2019-03-26T06:27:29.958Z,242.50
2019-03-26T06:30:00.543Z,257.23
2019-03-26T06:32:31.939Z,267.10
2019-03-26T06:35:02.791Z,269.70
2019-03-26T06:37:33.343Z,291.37
2019-03-26T06:40:06.326Z,289.03
2019-03-26T06:42:37.191Z,298.83
2019-03-26T06:45:10.546Z,305.90
2019-03-26T06:47:40.975Z,310.80
2019-03-26T06:50:11.773Z,306.13
2019-03-26T06:52:42.803Z,300.53
2019-03-26T06:55:13.466Z,312.90
2019-03-26T06:57:43.940Z,320.70
2019-03-26T07:00:17.637Z,342.40
2019-03-26T07:02:48.308Z,356.17
2019-03-26T07:05:19.061Z,384.90
2019-03-26T07:07:49.702Z,398.73
2019-03-26T07:10:26.423Z,406.87
2019-03-26T07:12:56.847Z,440.67
2019-03-26T07:15:27.930Z,475.00
2019-03-26T07:17:58.360Z,494.50
2019-03-26T07:20:28.816Z,495.13
2019-03-26T07:22:59.425Z,482.33
2019-03-26T07:25:30.466Z,480.83
2019-03-26T07:28:00.934Z,497.73
2019-03-26T07:30:39.359Z,501.90
2019-03-26T07:33:10.326Z,494.57
2019-03-26T07:35:40.944Z,493.47
2019-03-26T07:38:14.045Z,472.60
2019-03-26T07:40:46.727Z,495.97
2019-03-26T07:43:19.270Z,495.93
2019-03-26T07:45:50.871Z,480.97
2019-03-26T07:48:21.946Z,496.03
2019-03-26T07:50:52.504Z,498.97
2019-03-26T07:53:25.887Z,491.27
2019-03-26T07:55:56.722Z,483.30
2019-03-26T07:58:27.459Z,481.20
2019-03-26T08:00:58.777Z,493.40
2019-03-26T08:03:29.412Z,491.30
2019-03-26T08:06:00.277Z,492.30
2019-03-26T08:08:33.634Z,487.73
2019-03-26T08:11:04.265Z,448.27
2019-03-26T08:13:34.826Z,433.83
2019-03-26T08:16:05.957Z,456.77
2019-03-26T08:18:36.962Z,473.50
2019-03-26T08:21:07.702Z,502.37
2019-03-26T08:23:38.527Z,493.63
2019-03-26T08:26:09.522Z,499.10
2019-03-26T08:28:39.961Z,499.53
2019-03-26T08:31:10.712Z,475.07
2019-03-26T08:33:41.158Z,471.07
2019-03-26T08:36:12.048Z,438.33
2019-03-26T08:38:44.600Z,420.90
2019-03-26T08:41:15.957Z,431.07
2019-03-26T08:43:47.306Z,410.83
2019-03-26T08:46:18.283Z,391.90
2019-03-26T08:48:48.769Z,364.90
2019-03-26T08:51:19.188Z,368.43
2019-03-26T08:53:50.371Z,339.83
2019-03-26T08:56:21.051Z,346.17
2019-03-26T08:58:51.480Z,339.40
2019-03-26T09:01:21.957Z,278.50
2019-03-26T09:03:52.410Z,273.03
2019-03-26T09:06:22.910Z,279.67
2019-03-26T09:08:53.579Z,261.30
2019-03-26T09:11:25.020Z,267.17
2019-03-26T09:13:56.136Z,277.37
2019-03-26T09:16:26.852Z,297.63
2019-03-26T09:18:57.429Z,293.60
2019-03-26T09:21:28.294Z,288.20
2019-03-26T09:23:59.099Z,278.73
2019-03-26T09:26:30.003Z,269.20
2019-03-26T09:29:00.411Z,260.77
2019-03-26T09:31:30.895Z,273.23
2019-03-26T09:34:01.389Z,253.67
2019-03-26T09:36:32.215Z,237.47
2019-03-26T09:39:04.171Z,233.53
2019-03-26T09:41:35.611Z,254.93
2019-03-26T09:44:06.301Z,299.80
2019-03-26T09:46:37.431Z,270.60
2019-03-26T09:49:08.263Z,285.47
2019-03-26T09:51:39.007Z,289.40
2019-03-26T09:54:09.428Z,295.17
2019-03-26T09:56:40.451Z,285.60
2019-03-26T09:59:11.272Z,294.87
2019-03-26T10:01:42.120Z,287.30
2019-03-26T10:04:12.957Z,290.53
2019-03-26T10:06:43.453Z,296.40
2019-03-26T10:09:13.965Z,310.33
2019-03-26T10:11:44.456Z,250.57
2019-03-26T10:14:15.939Z,244.20
2019-03-26T10:16:47.342Z,235.33
2019-03-26T10:19:18.200Z,231.57
2019-03-26T10:21:49.309Z,217.60
2019-03-26T10:24:20.903Z,205.97
2019-03-26T10:26:51.382Z,209.17
2019-03-26T10:29:29.937Z,196.67
2019-03-26T10:31:55.011Z,188.07
2019-03-26T10:34:25.830Z,192.47
2019-03-26T10:36:56.312Z,190.53
2019-03-26T10:39:27.579Z,176.27
2019-03-26T10:41:58.745Z,179.67
2019-03-26T10:44:29.607Z,177.20
2019-03-26T10:47:00.315Z,168.07
2019-03-26T10:49:31.707Z,172.90
2019-03-26T10:52:02.936Z,166.00
2019-03-26T10:54:33.378Z,164.87
2019-03-26T10:57:04.075Z,170.50
2019-03-26T10:59:35.020Z,169.60
2019-03-26T11:02:05.728Z,164.80
2019-03-26T11:04:36.553Z,158.90
2019-03-26T11:07:07.227Z,160.40
2019-03-26T11:09:38.056Z,154.27
2019-03-26T11:12:08.826Z,151.90
2019-03-26T11:14:39.202Z,155.27
2019-03-26T11:17:11.127Z,148.67
2019-03-26T11:19:41.508Z,153.67
2019-03-26T11:22:12.530Z,153.57
2019-03-26T11:24:43.387Z,153.00
2019-03-26T11:27:13.415Z,149.73
2019-03-26T11:29:43.895Z,148.90
2019-03-26T11:32:14.724Z,155.77
2019-03-26T11:34:45.467Z,160.20
2019-03-26T11:37:16.427Z,162.60
2019-03-26T11:39:46.970Z,158.97
2019-03-26T11:42:17.475Z,159.57
2019-03-26T11:44:48.392Z,163.33
2019-03-26T11:47:18.908Z,164.40
2019-03-26T11:49:49.784Z,163.93
2019-03-26T11:52:20.698Z,162.40
2019-03-26T11:54:51.415Z,162.97
2019-03-26T11:57:22.214Z,161.30
2019-03-26T11:59:52.671Z,162.47
2019-03-26T12:02:25.204Z,165.20
2019-03-26T12:04:56.144Z,164.20
2019-03-26T12:07:27.209Z,166.90
2019-03-26T12:09:58.135Z,169.50
2019-03-26T12:12:29.210Z,162.70
2019-03-26T12:15:00.031Z,156.27
2019-03-26T12:17:30.643Z,154.17
2019-03-26T12:20:01.382Z,152.43
2019-03-26T12:22:32.212Z,151.50
2019-03-26T12:25:03.007Z,156.57
2019-03-26T12:27:36.322Z,163.77
2019-03-26T12:30:06.936Z,165.80
2019-03-26T12:32:40.735Z,165.20
2019-03-26T12:35:12.345Z,167.20
2019-03-26T12:37:43.390Z,173.67
2019-03-26T12:40:14.099Z,174.07
2019-03-26T12:42:45.733Z,174.07
2019-03-26T12:45:16.704Z,173.90
2019-03-26T12:47:47.393Z,174.43
2019-03-26T12:50:18.801Z,172.20
2019-03-26T12:52:49.656Z,170.17
2019-03-26T12:55:20.631Z,167.47
2019-03-26T12:57:51.088Z,165.67
2019-03-26T13:00:25.700Z,162.47
2019-03-26T13:02:56.197Z,162.57
2019-03-26T13:05:27.108Z,160.97
2019-03-26T13:07:57.580Z,160.43
2019-03-26T13:10:29.003Z,153.17
2019-03-26T13:12:59.520Z,153.83
2019-03-26T13:15:30.315Z,153.00
2019-03-26T13:18:00.705Z,151.47
2019-03-26T13:20:31.197Z,148.73
2019-03-26T13:23:01.643Z,147.00
2019-03-26T13:25:33.234Z,144.70
2019-03-26T13:28:04.809Z,144.07
2019-03-26T13:30:35.259Z,143.20
2019-03-26T13:33:05.716Z,147.00
2019-03-26T13:35:36.651Z,144.97
2019-03-26T13:38:07.685Z,140.30
2019-03-26T13:40:38.068Z,143.67
2019-03-26T13:43:08.827Z,139.47
2019-03-26T13:45:39.735Z,142.10
2019-03-26T13:48:10.667Z,139.90
2019-03-26T13:50:41.591Z,139.57
2019-03-26T13:53:12.707Z,140.97
2019-03-26T13:55:43.507Z,143.70
2019-03-26T13:58:13.930Z,142.73
2019-03-26T14:00:45.360Z,145.37
2019-03-26T14:03:16.111Z,149.00
2019-03-26T14:05:47.019Z,151.30
2019-03-26T14:08:17.551Z,155.37
2019-03-26T14:10:49.396Z,159.57
2019-03-26T14:13:19.960Z,156.87
2019-03-26T14:15:51.779Z,162.87
2019-03-26T14:18:22.358Z,156.73
2019-03-26T14:20:52.965Z,156.93
2019-03-26T14:23:23.932Z,151.37
2019-03-26T14:25:54.982Z,152.60
2019-03-26T14:28:25.499Z,153.63
2019-03-26T14:30:56.085Z,154.40
2019-03-26T14:33:27.065Z,152.80
2019-03-26T14:35:57.487Z,155.00
2019-03-26T14:38:28.404Z,155.80
2019-03-26T14:40:58.902Z,153.77
2019-03-26T14:43:30.256Z,155.00
2019-03-26T14:46:01.919Z,152.50
2019-03-26T14:48:32.325Z,157.37
2019-03-26T14:51:04.145Z,155.90
2019-03-26T14:53:35.014Z,159.67
2019-03-26T14:56:05.806Z,159.27
2019-03-26T14:58:36.663Z,158.70
2019-03-26T15:01:07.612Z,157.97
2019-03-26T15:03:38.023Z,150.53
2019-03-26T15:06:09.242Z,151.17
2019-03-26T15:08:40.307Z,147.50
2019-03-26T15:11:11.107Z,149.77
2019-03-26T15:13:42.122Z,152.77
2019-03-26T15:16:14.020Z,148.40
2019-03-26T15:18:46.576Z,151.00
2019-03-26T15:21:18.201Z,151.60
2019-03-26T15:23:52.260Z,154.63
2019-03-26T15:26:24.448Z,156.47
2019-03-26T15:28:57.210Z,161.97
2019-03-26T15:31:28.160Z,163.67
2019-03-26T15:33:59.363Z,166.20
2019-03-26T15:36:30.374Z,167.00
2019-03-26T15:39:01.259Z,167.37
2019-03-26T15:41:31.990Z,167.90
2019-03-26T15:44:02.979Z,167.77
2019-03-26T15:46:36.292Z,166.40
2019-03-26T15:49:07.145Z,170.00
2019-03-26T15:51:38.116Z,170.33
2019-03-26T15:54:09.161Z,172.67
2019-03-26T15:56:39.971Z,176.27
2019-03-26T15:59:10.793Z,177.87
2019-03-26T16:01:41.658Z,179.50
2019-03-26T16:04:14.151Z,178.67
2019-03-26T16:06:45.273Z,179.97
2019-03-26T16:09:16.096Z,185.00
2019-03-26T16:11:46.505Z,187.67
2019-03-26T16:14:17.186Z,181.97
2019-03-26T16:16:47.758Z,181.27
2019-03-26T16:19:31.863Z,186.03
2019-03-26T16:21:51.963Z,181.27
2019-03-26T16:24:23.243Z,184.73
2019-03-26T16:26:54.002Z,185.20
2019-03-26T16:29:25.989Z,185.30
2019-03-26T16:31:58.255Z,185.00
2019-03-26T16:34:29.898Z,186.67
2019-03-26T16:37:01.749Z,183.70
2019-03-26T16:39:32.658Z,183.07
2019-03-26T16:42:03.559Z,188.67
2019-03-26T16:44:34.785Z,188.00
2019-03-26T16:47:05.491Z,192.37
2019-03-26T16:49:36.425Z,188.33
2019-03-26T16:52:07.627Z,193.33
2019-03-26T16:54:38.219Z,189.90
2019-03-26T16:57:09.319Z,191.57
2019-03-26T16:59:40.470Z,190.37
2019-03-26T17:02:11.415Z,187.63
2019-03-26T17:04:42.043Z,196.97
2019-03-26T17:07:13.391Z,199.67
2019-03-26T17:09:43.930Z,200.00
2019-03-26T17:12:14.442Z,201.17
2019-03-26T17:14:44.975Z,201.63
2019-03-26T17:17:17.046Z,195.57
2019-03-26T17:19:47.964Z,196.90
2019-03-26T17:22:18.439Z,193.87
2019-03-26T17:24:49.213Z,197.67
2019-03-26T17:27:20.108Z,203.70
2019-03-26T17:29:50.824Z,200.73
2019-03-26T17:32:21.799Z,202.40
2019-03-26T17:34:52.182Z,206.97
2019-03-26T17:37:23.034Z,209.97
2019-03-26T17:39:53.928Z,211.83
2019-03-26T17:42:24.257Z,215.90
2019-03-26T17:44:58.179Z,216.57
2019-03-26T17:47:30.807Z,213.37
2019-03-26T17:50:02.408Z,212.70
2019-03-26T17:52:33.952Z,217.93
2019-03-26T17:55:04.907Z,214.50
2019-03-26T17:57:35.881Z,216.87
2019-03-26T18:00:08.604Z,211.00
2019-03-26T18:02:39.430Z,216.00
2019-03-26T18:05:24.190Z,217.37
2019-03-26T18:07:54.871Z,217.20
2019-03-26T18:10:25.267Z,217.50
2019-03-26T18:12:56.291Z,220.60
2019-03-26T18:15:27.397Z,220.60
2019-03-26T18:17:57.915Z,219.87
2019-03-26T18:20:32.997Z,217.37
2019-03-26T18:23:02.798Z,215.37
2019-03-26T18:25:33.614Z,217.33
2019-03-26T18:28:04.810Z,220.77
2019-03-26T18:30:35.952Z,226.50
2019-03-26T18:33:06.895Z,217.83
2019-03-26T18:35:39.797Z,216.90
2019-03-26T18:38:10.846Z,218.63
2019-03-26T18:40:42.337Z,212.80
2019-03-26T18:43:13.207Z,217.63
2019-03-26T18:45:45.564Z,217.30
2019-03-26T18:48:17.631Z,217.03
2019-03-26T18:50:48.491Z,217.77
2019-03-26T18:53:26.135Z,225.37
2019-03-26T18:55:58.380Z,224.27
2019-03-26T18:58:29.349Z,222.10
2019-03-26T19:01:00.493Z,223.80
2019-03-26T19:03:31.319Z,232.83
2019-03-26T19:06:03.118Z,224.97
2019-03-26T19:08:35.302Z,242.80
2019-03-26T19:11:07.163Z,245.77
2019-03-26T19:13:39.350Z,250.57
2019-03-26T19:16:10.751Z,256.57
2019-03-26T19:18:42.614Z,263.33
2019-03-26T19:21:14.230Z,268.77
2019-03-26T19:23:45.967Z,268.10
2019-03-26T19:26:16.635Z,270.90
2019-03-26T19:28:47.843Z,262.63
2019-03-26T19:31:19.849Z,272.70
2019-03-26T19:33:50.534Z,272.10
2019-03-26T19:36:21.184Z,282.77
2019-03-26T19:38:53.075Z,279.57
2019-03-26T19:41:24.308Z,290.67
2019-03-26T19:43:55.228Z,283.50
2019-03-26T19:46:26.560Z,299.10
2019-03-26T19:48:58.509Z,294.20
2019-03-26T19:51:29.639Z,298.67
2019-03-26T19:54:00.351Z,298.10
2019-03-26T19:56:31.015Z,318.17
2019-03-26T19:59:02.679Z,321.60
2019-03-26T20:01:36.611Z,327.37
2019-03-26T20:04:07.310Z,330.63
2019-03-26T20:06:38.967Z,313.83
2019-03-26T20:09:09.926Z,313.87
2019-03-26T20:11:41.987Z,313.43
2019-03-26T20:14:13.490Z,327.20
2019-03-26T20:16:45.380Z,333.87
2019-03-26T20:19:16.659Z,333.17
2019-03-26T20:21:49.974Z,340.53
2019-03-26T20:24:20.781Z,343.07
2019-03-26T20:26:53.502Z,334.60
2019-03-26T20:29:24.806Z,341.77
2019-03-26T20:31:55.804Z,349.07
2019-03-26T20:34:26.931Z,347.30
2019-03-26T20:36:57.642Z,353.63
2019-03-26T20:39:28.867Z,367.30
2019-03-26T20:41:59.875Z,383.57
2019-03-26T20:44:31.352Z,390.13
2019-03-26T20:47:03.703Z,384.60
2019-03-26T20:49:35.783Z,398.57
2019-03-26T20:52:07.085Z,405.27
2019-03-26T20:54:38.483Z,412.57
2019-03-26T20:57:11.899Z,419.70
2019-03-26T20:59:44.160Z,419.17
2019-03-26T21:02:15.112Z,437.83
2019-03-26T21:04:46.065Z,451.50
2019-03-26T21:07:16.758Z,462.10
2019-03-26T21:09:49.210Z,471.27
2019-03-26T21:12:20.083Z,501.23
2019-03-26T21:14:51.264Z,489.80
2019-03-26T21:17:22.629Z,495.13
2019-03-26T21:19:53.659Z,502.17
2019-03-26T21:22:26.330Z,503.80
2019-03-26T21:24:58.207Z,506.87
2019-03-26T21:27:29.656Z,519.27
2019-03-26T21:30:10.774Z,528.90
2019-03-26T21:32:34.754Z,536.63
2019-03-26T21:35:07.085Z,546.30
2019-03-26T21:37:40.517Z,546.27
2019-03-26T21:40:12.186Z,549.33
2019-03-26T21:42:46.503Z,560.00
2019-03-26T21:45:24.439Z,551.50
2019-03-26T21:47:55.534Z,566.73
2019-03-26T21:50:26.293Z,572.30
2019-03-26T21:52:59.767Z,582.40
2019-03-26T21:55:31.550Z,589.10
2019-03-26T21:58:03.639Z,604.50
2019-03-26T22:00:34.817Z,608.20
2019-03-26T22:03:06.680Z,617.90
2019-03-26T22:05:40.175Z,624.87
2019-03-26T22:08:11.107Z,627.57
2019-03-26T22:10:42.504Z,624.47
2019-03-26T22:13:15.338Z,624.57
2019-03-26T22:15:49.310Z,620.30
2019-03-26T22:18:20.254Z,628.73
2019-03-26T22:20:51.440Z,639.60
2019-03-26T22:23:27.966Z,652.53
2019-03-26T22:26:01.872Z,658.37
2019-03-26T22:28:33.526Z,669.00
2019-03-26T22:31:06.100Z,670.30
2019-03-26T22:33:37.155Z,675.93
2019-03-26T22:36:08.465Z,670.70
2019-03-26T22:38:39.205Z,687.63
2019-03-26T22:41:10.589Z,683.73
2019-03-26T22:43:42.755Z,700.93
2019-03-26T22:46:13.654Z,704.07
2019-03-26T22:48:44.131Z,713.80
2019-03-26T22:51:15.356Z,716.23
2019-03-26T22:53:46.693Z,711.40
2019-03-26T22:56:17.167Z,710.47
2019-03-26T22:58:48.038Z,715.83
2019-03-26T23:01:18.880Z,725.70
2019-03-26T23:03:49.423Z,725.70
2019-03-26T23:06:20.207Z,724.77
2019-03-26T23:08:51.215Z,722.97
2019-03-26T23:11:21.593Z,718.67
2019-03-26T23:13:52.547Z,724.47
2019-03-26T23:16:23.997Z,734.70
2019-03-26T23:18:54.656Z,730.60
2019-03-26T23:21:25.114Z,727.87
2019-03-26T23:23:55.838Z,733.67
2019-03-26T23:26:27.284Z,742.67
2019-03-26T23:28:58.362Z,753.03
2019-03-26T23:31:29.376Z,756.77
2019-03-26T23:33:59.741Z,759.17
2019-03-26T23:36:31.925Z,763.37
2019-03-26T23:39:02.335Z,769.73
2019-03-26T23:41:32.688Z,787.00
2019-03-26T23:44:03.458Z,780.07
2019-03-26T23:46:33.918Z,784.23
2019-03-26T23:49:04.390Z,790.97
2019-03-26T23:51:35.550Z,788.57
2019-03-26T23:54:06.063Z,789.47
2019-03-26T23:56:36.809Z,802.57
2019-03-26T23:59:07.275Z,805.50
